sensor_id;sensor_type;location;lat;lon;timestamp;P1;P2;P0
77365;PMS5003;66430;50.182;11.704;2024-01-15T00:01:01;61;47;
77365;PMS5003;66430;50.182;11.704;2024-01-15T00:03:27;59;49;
77365;PMS5003;66430;50.182;11.704;2024-01-15T00:05:53;62;47;
77365;PMS5003;66430;50.182;11.704;2024-01-15T00:08:18;60;49;
77365;PMS5003;66430;50.182;11.704;2024-01-15T00:10:43;60;45;
77365;PMS5003;66430;50.182;11.704;2024-01-15T00:13:08;52;43;
77365;PMS5003;66430;50.182;11.704;2024-01-15T00:15:34;56;43;
77365;PMS5003;66430;50.182;11.704;2024-01-15T00:17:59;62;51;
77365;PMS5003;66430;50.182;11.704;2024-01-15T00:20:25;48;41;
77365;PMS5003;66430;50.182;11.704;2024-01-15T00:22:50;57;51;
77365;PMS5003;66430;50.182;11.704;2024-01-15T00:27:41;47;38;
77365;PMS5003;66430;50.182;11.704;2024-01-15T00:30:07;54;43;
77365;PMS5003;66430;50.182;11.704;2024-01-15T00:32:33;64;51;
77365;PMS5003;66430;50.182;11.704;2024-01-15T00:34:58;60;53;
77365;PMS5003;66430;50.182;11.704;2024-01-15T00:37:23;75;51;
77365;PMS5003;66430;50.182;11.704;2024-01-15T00:39:48;77;61;
77365;PMS5003;66430;50.182;11.704;2024-01-15T00:42:13;68;50;
77365;PMS5003;66430;50.182;11.704;2024-01-15T00:44:39;53;45;
77365;PMS5003;66430;50.182;11.704;2024-01-15T00:47:05;49;38;
77365;PMS5003;66430;50.182;11.704;2024-01-15T00:49:30;54;41;
77365;PMS5003;66430;50.182;11.704;2024-01-15T00:51:55;63;54;
77365;PMS5003;66430;50.182;11.704;2024-01-15T00:54:21;64;54;
77365;PMS5003;66430;50.182;11.704;2024-01-15T00:56:47;58;54;
77365;PMS5003;66430;50.182;11.704;2024-01-15T00:59:12;68;53;
77365;PMS5003;66430;50.182;11.704;2024-01-15T01:01:37;63;45;
77365;PMS5003;66430;50.182;11.704;2024-01-15T01:04:02;67;53;
77365;PMS5003;66430;50.182;11.704;2024-01-15T01:06:27;62;49;
77365;PMS5003;66430;50.182;11.704;2024-01-15T01:08:53;72;51;
77365;PMS5003;66430;50.182;11.704;2024-01-15T01:11:19;66;52;
77365;PMS5003;66430;50.182;11.704;2024-01-15T01:13:45;56;46;
77365;PMS5003;66430;50.182;11.704;2024-01-15T01:16:10;57;39;
77365;PMS5003;66430;50.182;11.704;2024-01-15T01:18:36;56;42;
77365;PMS5003;66430;50.182;11.704;2024-01-15T01:21:02;63;51;
77365;PMS5003;66430;50.182;11.704;2024-01-15T01:23:27;48;42;
77365;PMS5003;66430;50.182;11.704;2024-01-15T01:25:52;66;49;
77365;PMS5003;66430;50.182;11.704;2024-01-15T01:28:19;58;44;
77365;PMS5003;66430;50.182;11.704;2024-01-15T01:30:44;59;45;
77365;PMS5003;66430;50.182;11.704;2024-01-15T01:33:10;60;49;
77365;PMS5003;66430;50.182;11.704;2024-01-15T01:35:36;65;48;
77365;PMS5003;66430;50.182;11.704;2024-01-15T01:38:01;69;51;
77365;PMS5003;66430;50.182;11.704;2024-01-15T01:40:27;63;51;
77365;PMS5003;66430;50.182;11.704;2024-01-15T01:42:52;58;47;
77365;PMS5003;66430;50.182;11.704;2024-01-15T01:45:18;58;40;
77365;PMS5003;66430;50.182;11.704;2024-01-15T01:47:43;56;44;
77365;PMS5003;66430;50.182;11.704;2024-01-15T01:50:09;55;45;
77365;PMS5003;66430;50.182;11.704;2024-01-15T01:52:34;60;49;
77365;PMS5003;66430;50.182;11.704;2024-01-15T01:55:00;45;34;
77365;PMS5003;66430;50.182;11.704;2024-01-15T01:57:25;54;40;
77365;PMS5003;66430;50.182;11.704;2024-01-15T01:59:50;52;45;
77365;PMS5003;66430;50.182;11.704;2024-01-15T02:02:16;49;40;
77365;PMS5003;66430;50.182;11.704;2024-01-15T02:04:42;65;50;
77365;PMS5003;66430;50.182;11.704;2024-01-15T02:07:07;59;47;
77365;PMS5003;66430;50.182;11.704;2024-01-15T02:09:32;61;51;
77365;PMS5003;66430;50.182;11.704;2024-01-15T02:11:57;52;43;
77365;PMS5003;66430;50.182;11.704;2024-01-15T02:14:23;67;51;
77365;PMS5003;66430;50.182;11.704;2024-01-15T02:16:49;52;38;
77365;PMS5003;66430;50.182;11.704;2024-01-15T02:19:15;59;44;
77365;PMS5003;66430;50.182;11.704;2024-01-15T02:21:40;54;44;
77365;PMS5003;66430;50.182;11.704;2024-01-15T02:24:06;52;41;
77365;PMS5003;66430;50.182;11.704;2024-01-15T02:26:31;56;45;
77365;PMS5003;66430;50.182;11.704;2024-01-15T02:28:56;57;43;
77365;PMS5003;66430;50.182;11.704;2024-01-15T02:31:23;46;37;
77365;PMS5003;66430;50.182;11.704;2024-01-15T02:33:47;54;41;
77365;PMS5003;66430;50.182;11.704;2024-01-15T02:36:13;59;43;
77365;PMS5003;66430;50.182;11.704;2024-01-15T02:38:38;62;50;
77365;PMS5003;66430;50.182;11.704;2024-01-15T02:41:04;52;41;
77365;PMS5003;66430;50.182;11.704;2024-01-15T02:43:29;50;47;
77365;PMS5003;66430;50.182;11.704;2024-01-15T02:45:54;54;47;
77365;PMS5003;66430;50.182;11.704;2024-01-15T02:48:20;48;39;
77365;PMS5003;66430;50.182;11.704;2024-01-15T02:50:45;57;47;
77365;PMS5003;66430;50.182;11.704;2024-01-15T02:53:10;55;47;
77365;PMS5003;66430;50.182;11.704;2024-01-15T02:55:37;48;47;
77365;PMS5003;66430;50.182;11.704;2024-01-15T02:58:03;52;43;
77365;PMS5003;66430;50.182;11.704;2024-01-15T03:00:27;57;41;
77365;PMS5003;66430;50.182;11.704;2024-01-15T03:02:52;54;47;
77365;PMS5003;66430;50.182;11.704;2024-01-15T03:05:18;51;44;
77365;PMS5003;66430;50.182;11.704;2024-01-15T03:07:43;64;48;
77365;PMS5003;66430;50.182;11.704;2024-01-15T03:10:08;44;37;
77365;PMS5003;66430;50.182;11.704;2024-01-15T03:12:34;58;48;
77365;PMS5003;66430;50.182;11.704;2024-01-15T03:14:59;61;48;
77365;PMS5003;66430;50.182;11.704;2024-01-15T03:17:24;62;39;
77365;PMS5003;66430;50.182;11.704;2024-01-15T03:19:50;67;51;
77365;PMS5003;66430;50.182;11.704;2024-01-15T03:22:16;55;41;
77365;PMS5003;66430;50.182;11.704;2024-01-15T03:24:46;60;47;
77365;PMS5003;66430;50.182;11.704;2024-01-15T03:27:07;59;51;
77365;PMS5003;66430;50.182;11.704;2024-01-15T03:29:32;62;54;
77365;PMS5003;66430;50.182;11.704;2024-01-15T03:31:58;59;54;
77365;PMS5003;66430;50.182;11.704;2024-01-15T03:34:24;64;48;
77365;PMS5003;66430;50.182;11.704;2024-01-15T03:36:49;59;50;
77365;PMS5003;66430;50.182;11.704;2024-01-15T03:39:14;46;38;
77365;PMS5003;66430;50.182;11.704;2024-01-15T03:41:41;70;58;
77365;PMS5003;66430;50.182;11.704;2024-01-15T03:44:06;47;37;
77365;PMS5003;66430;50.182;11.704;2024-01-15T03:46:32;57;43;
77365;PMS5003;66430;50.182;11.704;2024-01-15T03:48:57;55;43;
77365;PMS5003;66430;50.182;11.704;2024-01-15T03:51:23;59;51;
77365;PMS5003;66430;50.182;11.704;2024-01-15T03:53:48;50;41;
77365;PMS5003;66430;50.182;11.704;2024-01-15T03:56:14;48;38;
77365;PMS5003;66430;50.182;11.704;2024-01-15T03:58:39;51;40;
77365;PMS5003;66430;50.182;11.704;2024-01-15T04:01:08;56;44;
77365;PMS5003;66430;50.182;11.704;2024-01-15T04:03:30;59;44;
77365;PMS5003;66430;50.182;11.704;2024-01-15T04:05:55;59;47;
77365;PMS5003;66430;50.182;11.704;2024-01-15T04:08:25;59;48;
77365;PMS5003;66430;50.182;11.704;2024-01-15T04:10:45;65;51;
77365;PMS5003;66430;50.182;11.704;2024-01-15T04:13:11;60;45;
77365;PMS5003;66430;50.182;11.704;2024-01-15T04:15:37;56;46;
77365;PMS5003;66430;50.182;11.704;2024-01-15T04:18:02;54;44;
77365;PMS5003;66430;50.182;11.704;2024-01-15T04:20:27;51;47;
77365;PMS5003;66430;50.182;11.704;2024-01-15T04:22:53;59;48;
77365;PMS5003;66430;50.182;11.704;2024-01-15T04:25:19;62;49;
77365;PMS5003;66430;50.182;11.704;2024-01-15T04:27:44;62;45;
77365;PMS5003;66430;50.182;11.704;2024-01-15T04:30:10;66;52;
77365;PMS5003;66430;50.182;11.704;2024-01-15T04:32:36;72;54;
77365;PMS5003;66430;50.182;11.704;2024-01-15T04:35:01;65;54;
77365;PMS5003;66430;50.182;11.704;2024-01-15T04:37:26;51;47;
77365;PMS5003;66430;50.182;11.704;2024-01-15T04:39:52;62;48;
77365;PMS5003;66430;50.182;11.704;2024-01-15T04:42:17;59;47;
77365;PMS5003;66430;50.182;11.704;2024-01-15T04:44:42;48;38;
77365;PMS5003;66430;50.182;11.704;2024-01-15T04:47:07;58;45;
77365;PMS5003;66430;50.182;11.704;2024-01-15T04:49:33;56;44;
77365;PMS5003;66430;50.182;11.704;2024-01-15T04:51:58;59;48;
77365;PMS5003;66430;50.182;11.704;2024-01-15T04:54:23;51;38;
77365;PMS5003;66430;50.182;11.704;2024-01-15T04:56:50;67;49;
77365;PMS5003;66430;50.182;11.704;2024-01-15T04:59:15;52;42;
77365;PMS5003;66430;50.182;11.704;2024-01-15T05:01:41;47;36;
77365;PMS5003;66430;50.182;11.704;2024-01-15T05:04:06;58;47;
77365;PMS5003;66430;50.182;11.704;2024-01-15T05:06:32;48;36;
77365;PMS5003;66430;50.182;11.704;2024-01-15T05:08:58;51;38;
77365;PMS5003;66430;50.182;11.704;2024-01-15T05:11:23;52;44;
77365;PMS5003;66430;50.182;11.704;2024-01-15T05:13:48;52;41;
77365;PMS5003;66430;50.182;11.704;2024-01-15T05:16:14;42;35;
77365;PMS5003;66430;50.182;11.704;2024-01-15T05:18:40;42;37;
77365;PMS5003;66430;50.182;11.704;2024-01-15T05:21:06;46;35;
77365;PMS5003;66430;50.182;11.704;2024-01-15T05:23:31;56;46;
77365;PMS5003;66430;50.182;11.704;2024-01-15T05:25:57;46;37;
77365;PMS5003;66430;50.182;11.704;2024-01-15T05:28:22;41;37;
77365;PMS5003;66430;50.182;11.704;2024-01-15T05:30:47;46;41;
77365;PMS5003;66430;50.182;11.704;2024-01-15T05:33:13;51;41;
77365;PMS5003;66430;50.182;11.704;2024-01-15T05:35:38;41;33;
77365;PMS5003;66430;50.182;11.704;2024-01-15T05:38:04;38;31;
77365;PMS5003;66430;50.182;11.704;2024-01-15T05:40:30;54;42;
77365;PMS5003;66430;50.182;11.704;2024-01-15T05:42:55;44;41;
77365;PMS5003;66430;50.182;11.704;2024-01-15T05:45:20;36;30;
77365;PMS5003;66430;50.182;11.704;2024-01-15T05:47:51;49;34;
77365;PMS5003;66430;50.182;11.704;2024-01-15T05:50:11;52;41;
77365;PMS5003;66430;50.182;11.704;2024-01-15T05:52:36;38;31;
77365;PMS5003;66430;50.182;11.704;2024-01-15T05:55:02;38;31;
77365;PMS5003;66430;50.182;11.704;2024-01-15T05:57:28;41;33;
77365;PMS5003;66430;50.182;11.704;2024-01-15T05:59:53;33;33;
77365;PMS5003;66430;50.182;11.704;2024-01-15T06:02:19;37;34;
77365;PMS5003;66430;50.182;11.704;2024-01-15T06:04:44;49;37;
77365;PMS5003;66430;50.182;11.704;2024-01-15T06:07:10;41;38;
77365;PMS5003;66430;50.182;11.704;2024-01-15T06:09:36;40;29;
77365;PMS5003;66430;50.182;11.704;2024-01-15T06:12:01;37;27;
77365;PMS5003;66430;50.182;11.704;2024-01-15T06:14:27;42;34;
77365;PMS5003;66430;50.182;11.704;2024-01-15T06:16:52;41;35;
77365;PMS5003;66430;50.182;11.704;2024-01-15T06:19:17;38;35;
77365;PMS5003;66430;50.182;11.704;2024-01-15T06:21:43;38;30;
77365;PMS5003;66430;50.182;11.704;2024-01-15T06:24:10;53;34;
77365;PMS5003;66430;50.182;11.704;2024-01-15T06:26:34;45;35;
77365;PMS5003;66430;50.182;11.704;2024-01-15T06:29:00;45;35;
77365;PMS5003;66430;50.182;11.704;2024-01-15T06:31:25;39;38;
77365;PMS5003;66430;50.182;11.704;2024-01-15T06:33:50;40;33;
77365;PMS5003;66430;50.182;11.704;2024-01-15T06:36:16;52;42;
77365;PMS5003;66430;50.182;11.704;2024-01-15T06:38:43;46;40;
77365;PMS5003;66430;50.182;11.704;2024-01-15T06:41:07;52;40;
77365;PMS5003;66430;50.182;11.704;2024-01-15T06:43:33;44;37;
77365;PMS5003;66430;50.182;11.704;2024-01-15T06:45:58;49;38;
77365;PMS5003;66430;50.182;11.704;2024-01-15T06:48:23;42;38;
77365;PMS5003;66430;50.182;11.704;2024-01-15T06:50:49;38;33;
77365;PMS5003;66430;50.182;11.704;2024-01-15T06:53:15;44;37;
77365;PMS5003;66430;50.182;11.704;2024-01-15T06:55:40;52;38;
77365;PMS5003;66430;50.182;11.704;2024-01-15T06:58:06;48;38;
77365;PMS5003;66430;50.182;11.704;2024-01-15T07:00:31;42;34;
77365;PMS5003;66430;50.182;11.704;2024-01-15T07:02:57;54;43;
77365;PMS5003;66430;50.182;11.704;2024-01-15T07:05:23;49;41;
77365;PMS5003;66430;50.182;11.704;2024-01-15T07:07:48;48;42;
77365;PMS5003;66430;50.182;11.704;2024-01-15T07:10:14;48;35;
77365;PMS5003;66430;50.182;11.704;2024-01-15T07:12:44;43;35;
77365;PMS5003;66430;50.182;11.704;2024-01-15T07:15:05;48;41;
77365;PMS5003;66430;50.182;11.704;2024-01-15T07:17:30;52;39;
77365;PMS5003;66430;50.182;11.704;2024-01-15T07:19:56;38;32;
77365;PMS5003;66430;50.182;11.704;2024-01-15T07:22:21;53;35;
77365;PMS5003;66430;50.182;11.704;2024-01-15T07:24:46;38;34;
77365;PMS5003;66430;50.182;11.704;2024-01-15T07:27:12;38;34;
77365;PMS5003;66430;50.182;11.704;2024-01-15T07:29:37;37;31;
77365;PMS5003;66430;50.182;11.704;2024-01-15T07:32:03;43;38;
77365;PMS5003;66430;50.182;11.704;2024-01-15T07:34:27;31;27;
77365;PMS5003;66430;50.182;11.704;2024-01-15T07:36:53;34;31;
77365;PMS5003;66430;50.182;11.704;2024-01-15T07:39:18;37;34;
77365;PMS5003;66430;50.182;11.704;2024-01-15T07:41:44;35;31;
77365;PMS5003;66430;50.182;11.704;2024-01-15T07:44:09;38;31;
77365;PMS5003;66430;50.182;11.704;2024-01-15T07:46:34;38;34;
77365;PMS5003;66430;50.182;11.704;2024-01-15T07:49:01;42;34;
77365;PMS5003;66430;50.182;11.704;2024-01-15T07:51:25;52;39;
77365;PMS5003;66430;50.182;11.704;2024-01-15T07:53:53;43;32;
77365;PMS5003;66430;50.182;11.704;2024-01-15T07:56:16;41;34;
77365;PMS5003;66430;50.182;11.704;2024-01-15T07:58:41;41;36;
77365;PMS5003;66430;50.182;11.704;2024-01-15T08:01:07;29;24;
77365;PMS5003;66430;50.182;11.704;2024-01-15T08:03:32;34;28;
77365;PMS5003;66430;50.182;11.704;2024-01-15T08:05:58;39;35;
77365;PMS5003;66430;50.182;11.704;2024-01-15T08:08:24;39;27;
77365;PMS5003;66430;50.182;11.704;2024-01-15T08:10:49;27;27;
77365;PMS5003;66430;50.182;11.704;2024-01-15T08:13:14;35;28;
77365;PMS5003;66430;50.182;11.704;2024-01-15T08:15:40;40;34;
77365;PMS5003;66430;50.182;11.704;2024-01-15T08:18:05;46;40;
77365;PMS5003;66430;50.182;11.704;2024-01-15T08:20:30;38;34;
77365;PMS5003;66430;50.182;11.704;2024-01-15T08:22:55;32;31;
77365;PMS5003;66430;50.182;11.704;2024-01-15T08:25:21;36;32;
77365;PMS5003;66430;50.182;11.704;2024-01-15T08:27:46;39;34;
77365;PMS5003;66430;50.182;11.704;2024-01-15T08:30:12;40;32;
77365;PMS5003;66430;50.182;11.704;2024-01-15T08:32:38;35;28;
77365;PMS5003;66430;50.182;11.704;2024-01-15T08:35:04;39;33;
77365;PMS5003;66430;50.182;11.704;2024-01-15T08:37:29;38;32;
77365;PMS5003;66430;50.182;11.704;2024-01-15T08:39:54;33;31;
77365;PMS5003;66430;50.182;11.704;2024-01-15T08:42:19;39;34;
77365;PMS5003;66430;50.182;11.704;2024-01-15T08:44:45;38;33;
77365;PMS5003;66430;50.182;11.704;2024-01-15T08:47:11;36;27;
77365;PMS5003;66430;50.182;11.704;2024-01-15T08:49:36;32;25;
77365;PMS5003;66430;50.182;11.704;2024-01-15T08:52:03;47;32;
77365;PMS5003;66430;50.182;11.704;2024-01-15T08:54:26;40;32;
77365;PMS5003;66430;50.182;11.704;2024-01-15T08:56:52;33;28;
77365;PMS5003;66430;50.182;11.704;2024-01-15T08:59:19;40;36;
77365;PMS5003;66430;50.182;11.704;2024-01-15T09:01:43;43;33;
77365;PMS5003;66430;50.182;11.704;2024-01-15T09:04:08;43;31;
77365;PMS5003;66430;50.182;11.704;2024-01-15T09:06:33;40;32;
77365;PMS5003;66430;50.182;11.704;2024-01-15T09:09:00;33;25;
77365;PMS5003;66430;50.182;11.704;2024-01-15T09:11:25;35;29;
77365;PMS5003;66430;50.182;11.704;2024-01-15T09:13:50;32;27;
77365;PMS5003;66430;50.182;11.704;2024-01-15T09:16:15;36;28;
77365;PMS5003;66430;50.182;11.704;2024-01-15T09:18:41;32;29;
77365;PMS5003;66430;50.182;11.704;2024-01-15T09:21:06;30;20;
77365;PMS5003;66430;50.182;11.704;2024-01-15T09:23:31;25;23;
77365;PMS5003;66430;50.182;11.704;2024-01-15T09:25:56;29;25;
77365;PMS5003;66430;50.182;11.704;2024-01-15T09:28:22;29;27;
77365;PMS5003;66430;50.182;11.704;2024-01-15T09:30:48;29;25;
77365;PMS5003;66430;50.182;11.704;2024-01-15T09:33:13;39;27;
77365;PMS5003;66430;50.182;11.704;2024-01-15T09:35:39;36;27;
77365;PMS5003;66430;50.182;11.704;2024-01-15T09:38:04;33;31;
77365;PMS5003;66430;50.182;11.704;2024-01-15T09:40:30;37;35;
77365;PMS5003;66430;50.182;11.704;2024-01-15T09:42:55;39;29;
77365;PMS5003;66430;50.182;11.704;2024-01-15T09:45:20;29;24;
77365;PMS5003;66430;50.182;11.704;2024-01-15T09:47:46;35;31;
77365;PMS5003;66430;50.182;11.704;2024-01-15T09:50:11;36;27;
77365;PMS5003;66430;50.182;11.704;2024-01-15T09:52:37;29;24;
77365;PMS5003;66430;50.182;11.704;2024-01-15T09:55:03;32;30;
77365;PMS5003;66430;50.182;11.704;2024-01-15T09:57:28;33;24;
77365;PMS5003;66430;50.182;11.704;2024-01-15T09:59:54;35;29;
77365;PMS5003;66430;50.182;11.704;2024-01-15T10:02:19;32;26;
77365;PMS5003;66430;50.182;11.704;2024-01-15T10:04:45;27;22;
77365;PMS5003;66430;50.182;11.704;2024-01-15T10:07:10;32;25;
77365;PMS5003;66430;50.182;11.704;2024-01-15T10:09:35;43;33;
77365;PMS5003;66430;50.182;11.704;2024-01-15T10:12:00;33;30;
77365;PMS5003;66430;50.182;11.704;2024-01-15T10:14:25;33;30;
77365;PMS5003;66430;50.182;11.704;2024-01-15T10:16:50;29;22;
77365;PMS5003;66430;50.182;11.704;2024-01-15T10:19:16;32;26;
77365;PMS5003;66430;50.182;11.704;2024-01-15T10:21:41;37;32;
77365;PMS5003;66430;50.182;11.704;2024-01-15T10:24:07;34;32;
77365;PMS5003;66430;50.182;11.704;2024-01-15T10:26:33;25;22;
77365;PMS5003;66430;50.182;11.704;2024-01-15T10:28:58;32;26;
77365;PMS5003;66430;50.182;11.704;2024-01-15T10:31:23;36;30;
77365;PMS5003;66430;50.182;11.704;2024-01-15T10:33:50;36;26;
77365;PMS5003;66430;50.182;11.704;2024-01-15T10:36:15;33;24;
77365;PMS5003;66430;50.182;11.704;2024-01-15T10:38:40;30;28;
77365;PMS5003;66430;50.182;11.704;2024-01-15T10:41:05;41;32;
77365;PMS5003;66430;50.182;11.704;2024-01-15T10:43:31;33;29;
77365;PMS5003;66430;50.182;11.704;2024-01-15T10:45:56;28;24;
77365;PMS5003;66430;50.182;11.704;2024-01-15T10:48:21;29;24;
77365;PMS5003;66430;50.182;11.704;2024-01-15T10:50:47;28;25;
77365;PMS5003;66430;50.182;11.704;2024-01-15T10:53:12;40;29;
77365;PMS5003;66430;50.182;11.704;2024-01-15T10:55:38;30;25;
77365;PMS5003;66430;50.182;11.704;2024-01-15T10:58:03;35;29;
77365;PMS5003;66430;50.182;11.704;2024-01-15T11:00:33;21;18;
77365;PMS5003;66430;50.182;11.704;2024-01-15T11:02:55;32;25;
77365;PMS5003;66430;50.182;11.704;2024-01-15T11:05:19;34;28;
77365;PMS5003;66430;50.182;11.704;2024-01-15T11:07:44;27;25;
77365;PMS5003;66430;50.182;11.704;2024-01-15T11:12:36;32;29;
77365;PMS5003;66430;50.182;11.704;2024-01-15T11:15:02;26;24;
77365;PMS5003;66430;50.182;11.704;2024-01-15T11:17:27;37;29;
77365;PMS5003;66430;50.182;11.704;2024-01-15T11:19:52;33;25;
77365;PMS5003;66430;50.182;11.704;2024-01-15T11:24:43;30;22;
77365;PMS5003;66430;50.182;11.704;2024-01-15T11:27:09;31;24;
77365;PMS5003;66430;50.182;11.704;2024-01-15T11:29:34;31;24;
77365;PMS5003;66430;50.182;11.704;2024-01-15T11:32:00;26;21;
77365;PMS5003;66430;50.182;11.704;2024-01-15T11:41:40;26;24;
77365;PMS5003;66430;50.182;11.704;2024-01-15T11:44:05;26;22;
77365;PMS5003;66430;50.182;11.704;2024-01-15T11:46:31;32;28;
77365;PMS5003;66430;50.182;11.704;2024-01-15T11:48:58;34;32;
77365;PMS5003;66430;50.182;11.704;2024-01-15T11:51:21;22;22;
77365;PMS5003;66430;50.182;11.704;2024-01-15T11:53:47;26;22;
77365;PMS5003;66430;50.182;11.704;2024-01-15T11:56:14;25;24;
77365;PMS5003;66430;50.182;11.704;2024-01-15T11:58:38;32;26;
77365;PMS5003;66430;50.182;11.704;2024-01-15T12:01:03;42;34;
77365;PMS5003;66430;50.182;11.704;2024-01-15T12:03:31;28;26;
77365;PMS5003;66430;50.182;11.704;2024-01-15T12:05:55;34;32;
77365;PMS5003;66430;50.182;11.704;2024-01-15T12:08:21;57;48;
77365;PMS5003;66430;50.182;11.704;2024-01-15T12:10:46;32;29;
77365;PMS5003;66430;50.182;11.704;2024-01-15T12:13:12;56;44;
77365;PMS5003;66430;50.182;11.704;2024-01-15T12:15:37;40;29;
77365;PMS5003;66430;50.182;11.704;2024-01-15T12:18:02;34;28;
77365;PMS5003;66430;50.182;11.704;2024-01-15T12:20:29;44;30;
77365;PMS5003;66430;50.182;11.704;2024-01-15T12:22:53;29;26;
77365;PMS5003;66430;50.182;11.704;2024-01-15T12:25:20;29;28;
77365;PMS5003;66430;50.182;11.704;2024-01-15T12:27:44;45;33;
77365;PMS5003;66430;50.182;11.704;2024-01-15T12:30:11;30;25;
77365;PMS5003;66430;50.182;11.704;2024-01-15T12:32:35;35;34;
77365;PMS5003;66430;50.182;11.704;2024-01-15T12:35:00;36;30;
77365;PMS5003;66430;50.182;11.704;2024-01-15T12:37:25;37;36;
77365;PMS5003;66430;50.182;11.704;2024-01-15T12:39:51;29;26;
77365;PMS5003;66430;50.182;11.704;2024-01-15T12:42:16;37;27;
77365;PMS5003;66430;50.182;11.704;2024-01-15T12:44:42;40;36;
77365;PMS5003;66430;50.182;11.704;2024-01-15T12:47:07;38;34;
77365;PMS5003;66430;50.182;11.704;2024-01-15T12:49:33;33;28;
77365;PMS5003;66430;50.182;11.704;2024-01-15T12:51:58;37;36;
77365;PMS5003;66430;50.182;11.704;2024-01-15T12:54:23;33;28;
77365;PMS5003;66430;50.182;11.704;2024-01-15T12:56:48;37;26;
77365;PMS5003;66430;50.182;11.704;2024-01-15T12:59:16;41;37;
77365;PMS5003;66430;50.182;11.704;2024-01-15T13:01:42;33;27;
77365;PMS5003;66430;50.182;11.704;2024-01-15T13:04:05;38;34;
77365;PMS5003;66430;50.182;11.704;2024-01-15T13:06:31;30;27;
77365;PMS5003;66430;50.182;11.704;2024-01-15T13:08:57;30;27;
77365;PMS5003;66430;50.182;11.704;2024-01-15T13:11:22;34;30;
77365;PMS5003;66430;50.182;11.704;2024-01-15T13:13:48;31;29;
77365;PMS5003;66430;50.182;11.704;2024-01-15T13:16:13;35;29;
77365;PMS5003;66430;50.182;11.704;2024-01-15T13:18:38;35;30;
77365;PMS5003;66430;50.182;11.704;2024-01-15T13:21:04;30;27;
77365;PMS5003;66430;50.182;11.704;2024-01-15T13:23:30;29;23;
77365;PMS5003;66430;50.182;11.704;2024-01-15T13:25:55;34;29;
77365;PMS5003;66430;50.182;11.704;2024-01-15T13:28:21;31;30;
77365;PMS5003;66430;50.182;11.704;2024-01-15T13:30:46;29;25;
77365;PMS5003;66430;50.182;11.704;2024-01-15T13:33:11;26;23;
77365;PMS5003;66430;50.182;11.704;2024-01-15T13:35:36;31;27;
77365;PMS5003;66430;50.182;11.704;2024-01-15T13:38:01;33;27;
77365;PMS5003;66430;50.182;11.704;2024-01-15T13:40:27;33;29;
77365;PMS5003;66430;50.182;11.704;2024-01-15T13:42:53;29;26;
77365;PMS5003;66430;50.182;11.704;2024-01-15T13:45:18;27;25;
77365;PMS5003;66430;50.182;11.704;2024-01-15T13:47:43;33;30;
77365;PMS5003;66430;50.182;11.704;2024-01-15T13:50:09;30;25;
77365;PMS5003;66430;50.182;11.704;2024-01-15T13:52:34;37;31;
77365;PMS5003;66430;50.182;11.704;2024-01-15T13:54:59;33;31;
77365;PMS5003;66430;50.182;11.704;2024-01-15T13:57:25;35;30;
77365;PMS5003;66430;50.182;11.704;2024-01-15T13:59:55;35;34;
77365;PMS5003;66430;50.182;11.704;2024-01-15T14:02:15;30;25;
77365;PMS5003;66430;50.182;11.704;2024-01-15T14:04:40;30;26;
77365;PMS5003;66430;50.182;11.704;2024-01-15T14:07:06;27;26;
77365;PMS5003;66430;50.182;11.704;2024-01-15T14:09:31;34;26;
77365;PMS5003;66430;50.182;11.704;2024-01-15T14:11:56;30;23;
77365;PMS5003;66430;50.182;11.704;2024-01-15T14:14:21;31;26;
77365;PMS5003;66430;50.182;11.704;2024-01-15T14:16:53;31;26;
77365;PMS5003;66430;50.182;11.704;2024-01-15T14:19:12;33;31;
77365;PMS5003;66430;50.182;11.704;2024-01-15T14:21:37;26;25;
77365;PMS5003;66430;50.182;11.704;2024-01-15T14:24:03;29;23;
77365;PMS5003;66430;50.182;11.704;2024-01-15T14:26:28;30;25;
77365;PMS5003;66430;50.182;11.704;2024-01-15T14:28:53;39;31;
77365;PMS5003;66430;50.182;11.704;2024-01-15T14:31:19;36;32;
77365;PMS5003;66430;50.182;11.704;2024-01-15T14:33:44;32;25;
77365;PMS5003;66430;50.182;11.704;2024-01-15T14:36:10;40;28;
77365;PMS5003;66430;50.182;11.704;2024-01-15T14:38:37;32;31;
77365;PMS5003;66430;50.182;11.704;2024-01-15T14:41:01;23;23;
77365;PMS5003;66430;50.182;11.704;2024-01-15T14:43:26;27;25;
77365;PMS5003;66430;50.182;11.704;2024-01-15T14:45:51;36;31;
77365;PMS5003;66430;50.182;11.704;2024-01-15T14:48:17;28;28;
77365;PMS5003;66430;50.182;11.704;2024-01-15T14:50:42;34;31;
77365;PMS5003;66430;50.182;11.704;2024-01-15T14:53:07;34;30;
77365;PMS5003;66430;50.182;11.704;2024-01-15T14:55:33;36;31;
77365;PMS5003;66430;50.182;11.704;2024-01-15T14:57:58;30;29;
77365;PMS5003;66430;50.182;11.704;2024-01-15T15:00:28;38;34;
77365;PMS5003;66430;50.182;11.704;2024-01-15T15:02:49;42;36;
77365;PMS5003;66430;50.182;11.704;2024-01-15T15:05:14;30;23;
77365;PMS5003;66430;50.182;11.704;2024-01-15T15:07:39;32;25;
77365;PMS5003;66430;50.182;11.704;2024-01-15T15:10:05;33;27;
77365;PMS5003;66430;50.182;11.704;2024-01-15T15:12:30;26;25;
77365;PMS5003;66430;50.182;11.704;2024-01-15T15:14:56;40;30;
77365;PMS5003;66430;50.182;11.704;2024-01-15T15:17:21;35;29;
77365;PMS5003;66430;50.182;11.704;2024-01-15T15:19:46;28;27;
77365;PMS5003;66430;50.182;11.704;2024-01-15T15:22:11;31;27;
77365;PMS5003;66430;50.182;11.704;2024-01-15T15:24:36;23;23;
77365;PMS5003;66430;50.182;11.704;2024-01-15T15:27:02;27;24;
77365;PMS5003;66430;50.182;11.704;2024-01-15T15:29:28;23;19;
77365;PMS5003;66430;50.182;11.704;2024-01-15T15:31:53;29;21;
77365;PMS5003;66430;50.182;11.704;2024-01-15T15:34:18;25;23;
77365;PMS5003;66430;50.182;11.704;2024-01-15T15:36:43;27;19;
77365;PMS5003;66430;50.182;11.704;2024-01-15T15:39:08;27;22;
77365;PMS5003;66430;50.182;11.704;2024-01-15T15:41:33;33;27;
77365;PMS5003;66430;50.182;11.704;2024-01-15T15:43:59;34;33;
77365;PMS5003;66430;50.182;11.704;2024-01-15T15:46:25;31;26;
77365;PMS5003;66430;50.182;11.704;2024-01-15T15:48:50;29;25;
77365;PMS5003;66430;50.182;11.704;2024-01-15T15:51:15;25;22;
77365;PMS5003;66430;50.182;11.704;2024-01-15T15:53:41;33;29;
77365;PMS5003;66430;50.182;11.704;2024-01-15T15:56:06;25;22;
77365;PMS5003;66430;50.182;11.704;2024-01-15T15:58:32;27;25;
77365;PMS5003;66430;50.182;11.704;2024-01-15T16:00:58;29;25;
77365;PMS5003;66430;50.182;11.704;2024-01-15T16:03:23;21;21;